createdAt,value
2022-12-01T00:00:56.451Z,102797.63
2022-12-01T00:04:00.091Z,102797.66
2022-12-01T00:07:03.694Z,102793.28
2022-12-01T00:10:29.317Z,102796.66
2022-12-01T00:13:35.009Z,102793.25
2022-12-01T00:16:40.637Z,102794.06
2022-12-01T00:19:44.238Z,102800.16
2022-12-01T00:22:49.772Z,102793.19
2022-12-01T00:25:53.368Z,102800.03
2022-12-01T00:29:00.512Z,102788.78
2022-12-01T00:32:04.131Z,102795.72
2022-12-01T00:35:09.083Z,102798.41
2022-12-01T00:38:12.633Z,102797.59
2022-12-01T00:41:16.332Z,102793.19
2022-12-01T00:44:21.409Z,102797.59
2022-12-01T00:47:25.178Z,102801.81
2022-12-01T00:50:28.752Z,102810.44
2022-12-01T00:53:32.530Z,102802.78
2022-12-01T00:56:36.170Z,102803.50
2022-12-01T00:59:41.254Z,102799.19
2022-12-01T01:02:45.019Z,102807.00
2022-12-01T01:05:48.675Z,102806.84
2022-12-01T01:08:52.349Z,102804.31
2022-12-01T01:11:56.306Z,102812.13
2022-12-01T01:15:01.291Z,102806.75
2022-12-01T01:18:05.894Z,102807.66
2022-12-01T01:21:14.515Z,102801.66
2022-12-01T01:24:18.213Z,102806.94
2022-12-01T01:27:21.833Z,102805.19
2022-12-01T01:30:26.981Z,102810.53
2022-12-01T01:33:31.886Z,102810.59
2022-12-01T01:36:35.824Z,102801.75
2022-12-01T01:39:39.475Z,102811.19
2022-12-01T01:42:43.103Z,102814.72
2022-12-01T01:45:48.169Z,102812.13
2022-12-01T01:48:56.118Z,102818.31
2022-12-01T01:52:00.101Z,102818.97
2022-12-01T01:55:04.065Z,102814.72
2022-12-01T01:58:12.110Z,102816.50
2022-12-01T02:01:17.370Z,102818.22
2022-12-01T02:04:22.123Z,102818.16
2022-12-01T02:07:26.504Z,102819.16
2022-12-01T02:10:46.093Z,102815.78
2022-12-01T02:14:05.921Z,102822.72
2022-12-01T02:17:27.853Z,102817.53
2022-12-01T02:21:25.083Z,102822.63
2022-12-01T02:25:11.770Z,102821.00
2022-12-01T02:28:54.670Z,102824.66
2022-12-01T02:32:12.917Z,102819.09
2022-12-01T02:35:27.991Z,102821.69
2022-12-01T02:38:42.134Z,102819.09
2022-12-01T02:41:53.803Z,102819.81
2022-12-01T02:44:59.864Z,102829.28
2022-12-01T02:48:12.413Z,102818.13
2022-12-01T02:51:21.973Z,102830.22
2022-12-01T02:54:29.750Z,102822.28
2022-12-01T02:57:33.502Z,102828.38
2022-12-01T03:00:37.688Z,102831.81
2022-12-01T03:04:12.309Z,102824.94
2022-12-01T03:07:47.006Z,102817.06
2022-12-01T03:10:56.274Z,102822.25
2022-12-01T03:14:16.147Z,102816.00
2022-12-01T03:17:36.674Z,102817.00
2022-12-01T03:20:53.258Z,102814.41
2022-12-01T03:24:03.172Z,102817.00
2022-12-01T03:27:09.857Z,102811.66
2022-12-01T03:30:16.659Z,102818.56
2022-12-01T03:33:31.978Z,102820.28
2022-12-01T03:36:43.775Z,102814.25
2022-12-01T03:39:49.736Z,102817.72
2022-12-01T03:42:59.007Z,102812.53
2022-12-01T03:46:11.740Z,102819.47
2022-12-01T03:49:18.887Z,102819.56
2022-12-01T03:52:38.194Z,102817.81
2022-12-01T03:55:47.931Z,102814.38
2022-12-01T03:58:58.144Z,102812.53
2022-12-01T04:02:01.895Z,102813.53
2022-12-01T04:05:06.893Z,102818.66
2022-12-01T04:08:11.938Z,102818.69
2022-12-01T04:11:33.144Z,102823.78
2022-12-01T04:14:36.832Z,102826.50
2022-12-01T04:17:43.313Z,102832.50
2022-12-01T04:20:47.602Z,102823.69
2022-12-01T04:24:01.684Z,102834.25
2022-12-01T04:27:05.403Z,102831.56
2022-12-01T04:30:11.048Z,102830.59
2022-12-01T04:33:14.635Z,102834.88
2022-12-01T04:36:18.291Z,102836.75
2022-12-01T04:39:23.561Z,102829.88
2022-12-01T04:42:27.226Z,102832.50
2022-12-01T04:45:30.866Z,102834.03
2022-12-01T04:48:35.987Z,102827.22
2022-12-01T04:51:39.702Z,102834.97
2022-12-01T04:54:44.775Z,102833.94
2022-12-01T04:57:48.643Z,102837.47
2022-12-01T05:00:52.277Z,102835.81
2022-12-01T05:03:56.199Z,102839.28
2022-12-01T05:07:00.194Z,102835.00
2022-12-01T05:10:05.830Z,102830.72
2022-12-01T05:13:10.267Z,102830.72
2022-12-01T05:16:16.706Z,102839.44
2022-12-01T05:19:37.664Z,102844.66
2022-12-01T05:23:04.269Z,102839.53
2022-12-01T05:26:09.218Z,102839.34
2022-12-01T05:29:13.851Z,102841.13
2022-12-01T05:32:17.634Z,102852.44
2022-12-01T05:35:21.348Z,102842.09
2022-12-01T05:38:25.155Z,102847.28
2022-12-01T05:41:30.314Z,102849.00
2022-12-01T05:44:33.918Z,102853.34
2022-12-01T05:47:37.521Z,102847.31
2022-12-01T05:50:41.739Z,102848.97
2022-12-01T05:53:46.451Z,102850.78
2022-12-01T05:56:51.401Z,102839.41
2022-12-01T06:00:06.897Z,102852.25
2022-12-01T06:03:10.502Z,102848.03
2022-12-01T06:06:14.626Z,102852.22
2022-12-01T06:09:18.389Z,102855.81
2022-12-01T06:12:23.485Z,102859.09
2022-12-01T06:15:27.853Z,102852.13
2022-12-01T06:18:34.004Z,102862.56
2022-12-01T06:21:37.727Z,102862.69
2022-12-01T06:24:41.532Z,102858.38
2022-12-01T06:27:47.066Z,102863.31
2022-12-01T06:30:50.717Z,102871.31
2022-12-01T06:33:54.475Z,102868.59
2022-12-01T06:36:58.106Z,102870.19
2022-12-01T06:40:01.745Z,102871.31
2022-12-01T06:43:07.485Z,102873.84
2022-12-01T06:46:11.231Z,102879.84
2022-12-01T06:49:16.247Z,102884.94
2022-12-01T06:52:19.929Z,102874.63
2022-12-01T06:55:23.661Z,102876.31
2022-12-01T06:58:29.119Z,102871.88
2022-12-01T07:01:33.105Z,102884.81
2022-12-01T07:04:36.727Z,102889.97
2022-12-01T07:07:40.994Z,102889.22
2022-12-01T07:10:44.902Z,102891.66
2022-12-01T07:13:50.995Z,102897.78
2022-12-01T07:16:58.058Z,102902.16
2022-12-01T07:20:01.930Z,102901.03
2022-12-01T07:23:05.607Z,102893.34
2022-12-01T07:26:12.683Z,102904.47
2022-12-01T07:29:17.841Z,102906.19
2022-12-01T07:32:21.433Z,102912.44
2022-12-01T07:35:25.140Z,102913.28
2022-12-01T07:38:30.360Z,102920.22
2022-12-01T07:41:33.942Z,102909.66
2022-12-01T07:44:38.927Z,102919.16
2022-12-01T07:47:42.587Z,102927.06
2022-12-01T07:50:46.208Z,102918.50
2022-12-01T07:53:51.640Z,102922.91
2022-12-01T07:56:55.615Z,102916.63
2022-12-01T08:00:00.610Z,102916.53
2022-12-01T08:03:04.291Z,102915.84
2022-12-01T08:06:09.569Z,102915.88
2022-12-01T08:09:13.612Z,102921.19
2022-12-01T08:12:17.291Z,102927.16
2022-12-01T08:15:22.392Z,102921.97
2022-12-01T08:18:26.356Z,102923.66
2022-12-01T08:21:30.138Z,102926.13
2022-12-01T08:24:33.901Z,102928.81
2022-12-01T08:27:37.906Z,102939.84
2022-12-01T08:30:42.927Z,102930.47
2022-12-01T08:33:47.170Z,102934.13
2022-12-01T08:36:50.850Z,102931.13
2022-12-01T08:39:54.445Z,102936.50
2022-12-01T08:42:58.918Z,102941.00
2022-12-01T08:46:20.821Z,102942.47
2022-12-01T08:49:24.664Z,102945.13
2022-12-01T08:52:34.126Z,102942.25
2022-12-01T08:55:38.193Z,102945.81
2022-12-01T08:58:41.935Z,102953.56
2022-12-01T09:01:57.476Z,102945.97
2022-12-01T09:05:01.398Z,102946.84
2022-12-01T09:08:22.717Z,102950.47
2022-12-01T09:11:26.488Z,102952.19
2022-12-01T09:14:30.250Z,102953.06
2022-12-01T09:17:35.232Z,102959.28
2022-12-01T09:20:38.900Z,102967.03
2022-12-01T09:23:42.918Z,102965.44
2022-12-01T09:26:46.623Z,102967.97
2022-12-01T09:29:50.553Z,102962.63
2022-12-01T09:32:55.740Z,102966.31
2022-12-01T09:36:00.908Z,102971.22
2022-12-01T09:39:05.992Z,102969.56
2022-12-01T09:42:16.189Z,102972.78
2022-12-01T09:45:27.996Z,102970.34
2022-12-01T09:48:42.545Z,102964.31
2022-12-01T09:51:46.656Z,102963.22
2022-12-01T09:54:50.908Z,102967.09
2022-12-01T09:57:57.913Z,102955.91
2022-12-01T10:01:01.883Z,102953.38
2022-12-01T10:04:16.114Z,102951.69
2022-12-01T10:07:26.596Z,102948.28
2022-12-01T10:10:37.082Z,102952.75
2022-12-01T10:13:43.660Z,102948.19
2022-12-01T10:17:01.898Z,102956.72
2022-12-01T10:20:17.929Z,102955.16
2022-12-01T10:23:39.961Z,102952.56
2022-12-01T10:26:54.864Z,102942.25
2022-12-01T10:30:08.166Z,102943.72
2022-12-01T10:33:24.286Z,102941.81
2022-12-01T10:36:33.009Z,102948.13
2022-12-01T10:39:42.015Z,102945.63
2022-12-01T10:42:48.006Z,102937.03
2022-12-01T10:45:52.303Z,102931.72
2022-12-01T10:48:59.471Z,102925.66
2022-12-01T10:52:04.610Z,102930.84
2022-12-01T10:55:27.998Z,102925.84
2022-12-01T10:58:35.320Z,102922.50
2022-12-01T11:01:39.215Z,102931.56
2022-12-01T11:04:51.905Z,102922.94
2022-12-01T11:07:57.398Z,102923.38
2022-12-01T11:11:01.151Z,102929.41
2022-12-01T11:14:17.916Z,102933.22
2022-12-01T11:17:38.270Z,102934.91
2022-12-01T11:20:42.844Z,102924.16
2022-12-01T11:23:50.553Z,102923.56
2022-12-01T11:26:54.559Z,102926.94
2022-12-01T11:30:04.876Z,102918.88
2022-12-01T11:33:08.691Z,102919.38
2022-12-01T11:36:22.094Z,102919.50
2022-12-01T11:39:32.464Z,102913.25
2022-12-01T11:42:37.760Z,102908.19
2022-12-01T11:45:42.523Z,102903.34
2022-12-01T11:49:00.406Z,102907.25
2022-12-01T11:52:23.836Z,102901.66
2022-12-01T11:55:31.946Z,102898.50
2022-12-01T11:58:35.626Z,102897.28
2022-12-01T12:01:58.548Z,102898.38
2022-12-01T12:05:57.645Z,102900.31
2022-12-01T12:09:47.503Z,102892.19
2022-12-01T12:13:10.555Z,102899.78
2022-12-01T12:16:33.742Z,102891.22
2022-12-01T12:20:08.619Z,102884.91
2022-12-01T12:23:33.121Z,102888.31
2022-12-01T12:26:45.927Z,102885.03
2022-12-01T12:30:18.963Z,102881.41
2022-12-01T12:33:50.600Z,102879.19
2022-12-01T12:37:11.162Z,102878.19
2022-12-01T12:40:42.246Z,102865.72
2022-12-01T12:43:58.794Z,102865.63
2022-12-01T12:47:23.596Z,102864.19
2022-12-01T12:50:35.898Z,102860.00
2022-12-01T12:53:50.275Z,102866.94
2022-12-01T12:57:01.894Z,102868.19
2022-12-01T13:00:15.560Z,102869.47
2022-12-01T13:03:33.786Z,102879.63
2022-12-01T13:06:44.881Z,102886.31
2022-12-01T13:09:55.350Z,102882.63
2022-12-01T13:13:13.955Z,102875.44
2022-12-01T13:16:24.274Z,102881.63
2022-12-01T13:19:34.824Z,102880.63
2022-12-01T13:22:39.172Z,102880.75
2022-12-01T13:25:45.487Z,102877.44
2022-12-01T13:28:55.655Z,102870.69
2022-12-01T13:31:59.724Z,102884.53
2022-12-01T13:35:22.016Z,102893.66
2022-12-01T13:38:31.162Z,102895.19
2022-12-01T13:41:38.608Z,102900.38
2022-12-01T13:44:45.949Z,102902.91
2022-12-01T13:47:55.903Z,102890.47
2022-12-01T13:51:03.954Z,102897.59
2022-12-01T13:54:31.616Z,102893.16
2022-12-01T13:57:38.238Z,102892.16
2022-12-01T14:00:43.188Z,102895.75
2022-12-01T14:03:57.071Z,102897.00
2022-12-01T14:07:35.645Z,102903.19
2022-12-01T14:10:39.711Z,102902.38
2022-12-01T14:13:54.759Z,102898.75
2022-12-01T14:17:02.639Z,102899.50
2022-12-01T14:20:23.049Z,102899.63
2022-12-01T14:23:33.349Z,102891.47
2022-12-01T14:26:46.533Z,102893.25
2022-12-01T14:29:50.171Z,102888.13
2022-12-01T14:33:14.001Z,102881.84
2022-12-01T14:36:38.052Z,102876.78
2022-12-01T14:39:47.557Z,102875.88
2022-12-01T14:43:13.781Z,102878.09
2022-12-01T14:46:25.676Z,102881.34
2022-12-01T14:49:36.351Z,102867.63
2022-12-01T14:52:44.585Z,102874.56
2022-12-01T14:55:56.410Z,102872.81
2022-12-01T14:59:02.799Z,102867.81
2022-12-01T15:02:12.312Z,102863.44
2022-12-01T15:05:20.030Z,102856.50
2022-12-01T15:08:41.953Z,102866.72
2022-12-01T15:11:56.973Z,102866.81
2022-12-01T15:15:01.000Z,102870.34
2022-12-01T15:18:24.243Z,102862.25
2022-12-01T15:21:31.785Z,102863.22
2022-12-01T15:24:35.818Z,102862.50
2022-12-01T15:27:41.053Z,102856.44
2022-12-01T15:30:49.627Z,102864.09
2022-12-01T15:33:55.522Z,102874.78
2022-12-01T15:37:01.114Z,102877.19
2022-12-01T15:43:41.319Z,102881.34
2022-12-01T15:46:45.604Z,102881.38
2022-12-01T15:49:50.778Z,102880.69
2022-12-01T15:52:54.486Z,102881.59
2022-12-01T15:55:59.835Z,102884.78
2022-12-01T15:59:28.494Z,102884.69
2022-12-01T16:02:34.593Z,102890.81
2022-12-01T16:05:38.565Z,102895.81
2022-12-01T16:08:42.444Z,102893.66
2022-12-01T16:12:25.150Z,102902.56
2022-12-01T16:15:30.164Z,102899.63
2022-12-01T16:18:35.334Z,102898.75
2022-12-01T16:21:47.985Z,102907.19
2022-12-01T16:24:55.950Z,102903.56
2022-12-01T16:27:59.922Z,102897.66
2022-12-01T16:31:09.136Z,102905.34
2022-12-01T16:34:44.519Z,102907.03
2022-12-01T16:37:44.218Z,102904.91
2022-12-01T16:40:49.938Z,102903.53
2022-12-01T16:44:20.341Z,102907.31
2022-12-01T16:47:21.946Z,102909.91
2022-12-01T16:50:25.608Z,102906.28
2022-12-01T16:53:29.250Z,102912.50
2022-12-01T16:56:32.956Z,102914.13
2022-12-01T16:59:36.589Z,102920.31
2022-12-01T17:02:41.630Z,102924.59
2022-12-01T17:05:45.299Z,102921.19
2022-12-01T17:08:50.320Z,102926.34
2022-12-01T17:11:56.269Z,102925.50
2022-12-01T17:14:59.879Z,102928.31
2022-12-01T17:18:05.057Z,102925.72
2022-12-01T17:21:11.135Z,102929.13
2022-12-01T17:24:18.822Z,102932.44
2022-12-01T17:27:23.239Z,102927.50
2022-12-01T17:30:27.340Z,102930.81
2022-12-01T17:33:34.693Z,102932.13
2022-12-01T17:36:38.589Z,102927.97
2022-12-01T17:39:42.347Z,102928.03
2022-12-01T17:42:50.469Z,102920.94
2022-12-01T17:45:54.603Z,102918.13
2022-12-01T17:48:59.923Z,102921.44
2022-12-01T17:52:03.689Z,102930.13
2022-12-01T17:55:08.903Z,102927.06
2022-12-01T17:58:12.658Z,102928.81
2022-12-01T18:01:21.390Z,102935.63
2022-12-01T18:04:29.282Z,102932.03
2022-12-01T18:07:33.020Z,102932.94
2022-12-01T18:10:36.684Z,102940.72
2022-12-01T18:13:42.442Z,102932.78
2022-12-01T18:16:47.015Z,102936.03
2022-12-01T18:19:52.084Z,102930.69
2022-12-01T18:22:55.749Z,102928.16
2022-12-01T18:26:05.130Z,102929.19
2022-12-01T18:29:16.109Z,102932.66
2022-12-01T18:32:19.790Z,102930.03
2022-12-01T18:35:30.249Z,102932.72
2022-12-01T18:38:35.287Z,102933.56
2022-12-01T18:41:39.270Z,102936.84
2022-12-01T18:44:43.186Z,102940.25
2022-12-01T18:47:46.866Z,102940.38
2022-12-01T18:50:57.885Z,102936.03
2022-12-01T18:54:05.923Z,102935.19
2022-12-01T18:57:09.682Z,102932.41
2022-12-01T19:00:15.529Z,102937.56
2022-12-01T19:03:22.221Z,102928.19
2022-12-01T19:06:38.949Z,102938.69
2022-12-01T19:09:42.894Z,102926.50
2022-12-01T19:12:49.400Z,102931.63
2022-12-01T19:15:53.468Z,102935.84
2022-12-01T19:18:57.351Z,102930.56
2022-12-01T19:22:02.629Z,102928.94
2022-12-01T19:25:08.033Z,102933.31
2022-12-01T19:28:11.638Z,102923.22
2022-12-01T19:31:17.766Z,102919.78
2022-12-01T19:34:21.663Z,102912.84
2022-12-01T19:37:26.850Z,102916.16
2022-12-01T19:40:30.927Z,102910.97
2022-12-01T19:43:36.090Z,102912.00
2022-12-01T19:46:39.855Z,102912.00
2022-12-01T19:49:44.363Z,102912.09
2022-12-01T19:52:51.800Z,102912.91
2022-12-01T19:56:03.234Z,102916.16
2022-12-01T19:59:08.035Z,102925.59
2022-12-01T20:02:12.639Z,102923.09
2022-12-01T20:05:16.887Z,102925.69
2022-12-01T20:08:21.942Z,102920.72
2022-12-01T20:11:26.394Z,102925.91
2022-12-01T20:14:30.268Z,102918.78
2022-12-01T20:17:37.364Z,102926.72
2022-12-01T20:20:40.994Z,102925.19
2022-12-01T20:23:48.566Z,102931.94
2022-12-01T20:26:56.729Z,102927.63
2022-12-01T20:30:00.506Z,102927.28
2022-12-01T20:33:04.523Z,102921.22
2022-12-01T20:36:09.586Z,102931.69
2022-12-01T20:39:16.264Z,102928.16
2022-12-01T20:42:22.291Z,102928.09
2022-12-01T20:45:46.204Z,102922.97
2022-12-01T20:48:50.136Z,102924.84
2022-12-01T20:51:53.923Z,102931.53
2022-12-01T20:54:58.984Z,102927.22
2022-12-01T20:58:02.978Z,102927.28
2022-12-01T21:01:11.232Z,102925.44
2022-12-01T21:04:15.225Z,102921.09
2022-12-01T21:07:19.921Z,102922.97
2022-12-01T21:10:25.675Z,102923.63
2022-12-01T21:13:42.361Z,102923.91
2022-12-01T21:16:49.530Z,102923.09
2022-12-01T21:20:01.850Z,102923.63
2022-12-01T21:23:13.058Z,102916.78
2022-12-01T21:26:19.117Z,102916.81
2022-12-01T21:29:25.959Z,102916.78
2022-12-01T21:32:37.709Z,102909.09
2022-12-01T21:35:44.415Z,102907.34
2022-12-01T21:38:50.694Z,102905.53
2022-12-01T21:42:00.982Z,102917.38
2022-12-01T21:45:18.830Z,102911.59
2022-12-01T21:48:24.193Z,102910.63
2022-12-01T21:51:28.009Z,102910.88
2022-12-01T21:54:32.416Z,102905.56
2022-12-01T21:57:44.816Z,102910.69
2022-12-01T22:00:48.897Z,102908.06
2022-12-01T22:03:54.177Z,102900.19
2022-12-01T22:07:00.946Z,102903.59
2022-12-01T22:10:55.304Z,102902.81
2022-12-01T22:14:14.057Z,102903.84
2022-12-01T22:17:22.002Z,102903.59
2022-12-01T22:20:25.853Z,102900.19
2022-12-01T22:23:34.813Z,102899.31
2022-12-01T22:26:41.134Z,102890.91
2022-12-01T22:29:49.128Z,102891.72
2022-12-01T22:32:58.143Z,102887.34
2022-12-01T22:36:02.095Z,102888.31
2022-12-01T22:39:26.930Z,102886.69
2022-12-01T22:42:35.978Z,102883.94
2022-12-01T22:45:41.114Z,102873.66
2022-12-01T22:48:47.811Z,102881.72
2022-12-01T22:51:53.974Z,102880.75
2022-12-01T22:54:57.713Z,102882.56
2022-12-01T22:58:02.050Z,102887.81
2022-12-01T23:01:23.619Z,102882.25
2022-12-01T23:04:31.282Z,102888.31
2022-12-01T23:07:37.493Z,102885.53
2022-12-01T23:10:42.824Z,102881.16
2022-12-01T23:13:46.374Z,102877.81
2022-12-01T23:16:57.687Z,102873.75
2022-12-01T23:20:27.021Z,102870.75
2022-12-01T23:23:33.484Z,102867.91
2022-12-01T23:26:37.245Z,102865.94
2022-12-01T23:29:40.999Z,102858.13
2022-12-01T23:32:49.224Z,102864.78
2022-12-01T23:35:57.233Z,102864.69
2022-12-01T23:39:08.007Z,102863.97
2022-12-01T23:42:14.241Z,102860.06
2022-12-01T23:45:22.725Z,102861.38
2022-12-01T23:48:36.035Z,102863.78
2022-12-01T23:51:45.427Z,102856.22
2022-12-01T23:54:49.897Z,102856.16
2022-12-01T23:57:55.326Z,102856.94
